sensor_id;sensor_type;location;lat;lon;timestamp;pressure;altitude;pressure_sealevel;temperature;humidity
73234;BME280;62293;-26.174;27.908;2022-08-03T17:47:43;83823.22;;;21.25;27.08
73234;BME280;62293;-26.174;27.908;2022-08-03T17:50:08;83827.67;;;21.32;26.84
73234;BME280;62293;-26.174;27.908;2022-08-03T17:52:36;83833.07;;;19.33;29.73
73234;BME280;62293;-26.174;27.908;2022-08-03T17:55:05;83841.80;;;18.97;30.35
73234;BME280;62293;-26.174;27.908;2022-08-03T17:57:29;83845.81;;;19.69;29.68
73234;BME280;62293;-26.174;27.908;2022-08-03T17:59:57;83844.74;;;19.30;29.86
73234;BME280;62293;-26.174;27.908;2022-08-03T18:02:26;83847.61;;;19.38;29.78
73234;BME280;62293;-26.174;27.908;2022-08-03T18:04:44;83850.22;;;19.77;29.78
73234;BME280;62293;-26.174;27.908;2022-08-03T18:07:05;83851.98;;;19.20;29.88
73234;BME280;62293;-26.174;27.908;2022-08-03T18:09:31;83854.28;;;19.16;29.35
73234;BME280;62293;-26.174;27.908;2022-08-03T18:11:57;83858.88;;;19.24;30.17
73234;BME280;62293;-26.174;27.908;2022-08-03T18:14:29;83860.74;;;19.32;29.63
73234;BME280;62293;-26.174;27.908;2022-08-03T18:16:51;83860.56;;;19.04;29.52
73234;BME280;62293;-26.174;27.908;2022-08-03T18:19:11;83855.41;;;19.38;29.75
73234;BME280;62293;-26.174;27.908;2022-08-03T18:21:37;83859.15;;;19.77;29.32
73234;BME280;62293;-26.174;27.908;2022-08-03T18:24:03;83869.68;;;19.07;29.92
73234;BME280;62293;-26.174;27.908;2022-08-03T18:26:28;83867.64;;;19.31;29.40
73234;BME280;62293;-26.174;27.908;2022-08-03T18:28:53;83870.56;;;19.36;29.63
73234;BME280;62293;-26.174;27.908;2022-08-03T18:31:18;83869.06;;;19.09;29.87
73234;BME280;62293;-26.174;27.908;2022-08-03T18:33:45;83869.05;;;19.17;29.69
73234;BME280;62293;-26.174;27.908;2022-08-03T18:36:10;83871.51;;;19.13;29.79
73234;BME280;62293;-26.174;27.908;2022-08-03T18:38:37;83871.69;;;19.19;29.04
73234;BME280;62293;-26.174;27.908;2022-08-03T18:41:00;83875.14;;;19.20;29.33
73234;BME280;62293;-26.174;27.908;2022-08-03T18:43:25;83877.43;;;19.36;30.05
73234;BME280;62293;-26.174;27.908;2022-08-03T18:45:54;83878.44;;;18.91;30.19
73234;BME280;62293;-26.174;27.908;2022-08-03T18:48:21;83878.57;;;18.97;29.93
73234;BME280;62293;-26.174;27.908;2022-08-03T18:50:47;83880.14;;;19.08;30.07
73234;BME280;62293;-26.174;27.908;2022-08-03T18:53:13;83878.18;;;19.14;29.89
73234;BME280;62293;-26.174;27.908;2022-08-03T18:55:33;83880.14;;;19.58;29.54
73234;BME280;62293;-26.174;27.908;2022-08-03T18:58:07;83879.36;;;19.61;29.48
73234;BME280;62293;-26.174;27.908;2022-08-03T19:00:23;83879.09;;;19.11;30.03
73234;BME280;62293;-26.174;27.908;2022-08-03T19:02:51;83878.22;;;19.12;29.76
73234;BME280;62293;-26.174;27.908;2022-08-03T19:05:17;83880.25;;;19.22;29.37
73234;BME280;62293;-26.174;27.908;2022-08-03T19:07:42;83877.49;;;19.20;29.44
73234;BME280;62293;-26.174;27.908;2022-08-03T19:10:07;83879.39;;;19.12;30.06
73234;BME280;62293;-26.174;27.908;2022-08-03T19:12:37;83882.16;;;19.32;29.69
73234;BME280;62293;-26.174;27.908;2022-08-03T19:15:04;83886.70;;;19.44;29.71
73234;BME280;62293;-26.174;27.908;2022-08-03T19:17:23;83881.10;;;19.20;29.20
73234;BME280;62293;-26.174;27.908;2022-08-03T19:19:49;83878.48;;;19.39;29.43
73234;BME280;62293;-26.174;27.908;2022-08-03T19:22:12;83876.79;;;19.65;29.26
73234;BME280;62293;-26.174;27.908;2022-08-03T19:24:38;83877.57;;;19.07;29.85
73234;BME280;62293;-26.174;27.908;2022-08-03T19:27:04;83880.15;;;19.08;29.94
73234;BME280;62293;-26.174;27.908;2022-08-03T19:29:29;83884.85;;;19.47;29.73
73234;BME280;62293;-26.174;27.908;2022-08-03T19:31:54;83884.11;;;19.17;30.06
73234;BME280;62293;-26.174;27.908;2022-08-03T19:34:18;83887.53;;;18.75;30.27
73234;BME280;62293;-26.174;27.908;2022-08-03T19:36:44;83884.44;;;18.97;30.07
73234;BME280;62293;-26.174;27.908;2022-08-03T19:39:09;83886.44;;;18.86;30.15
73234;BME280;62293;-26.174;27.908;2022-08-03T19:41:37;83876.57;;;19.37;29.76
73234;BME280;62293;-26.174;27.908;2022-08-03T19:44:03;83873.55;;;19.36;29.44
73234;BME280;62293;-26.174;27.908;2022-08-03T19:46:27;83869.92;;;19.10;29.67
73234;BME280;62293;-26.174;27.908;2022-08-03T19:48:54;83869.69;;;18.96;29.93
73234;BME280;62293;-26.174;27.908;2022-08-03T19:51:16;83870.51;;;18.93;30.08
73234;BME280;62293;-26.174;27.908;2022-08-03T19:53:41;83873.70;;;18.91;30.08
73234;BME280;62293;-26.174;27.908;2022-08-03T19:56:06;83871.80;;;19.06;29.92
73234;BME280;62293;-26.174;27.908;2022-08-03T19:58:32;83871.44;;;18.87;30.34
73234;BME280;62293;-26.174;27.908;2022-08-03T20:00:57;83869.34;;;18.90;30.31
73234;BME280;62293;-26.174;27.908;2022-08-03T20:03:21;83864.94;;;18.66;30.10
73234;BME280;62293;-26.174;27.908;2022-08-03T20:05:47;83864.56;;;18.54;30.39
73234;BME280;62293;-26.174;27.908;2022-08-03T20:08:13;83861.24;;;18.75;29.76
73234;BME280;62293;-26.174;27.908;2022-08-03T20:10:38;83863.08;;;18.56;30.12
73234;BME280;62293;-26.174;27.908;2022-08-03T20:13:03;83858.56;;;18.84;30.29
73234;BME280;62293;-26.174;27.908;2022-08-03T20:15:29;83855.22;;;18.84;30.10
73234;BME280;62293;-26.174;27.908;2022-08-03T20:17:54;83856.12;;;19.37;29.61
73234;BME280;62293;-26.174;27.908;2022-08-03T20:20:21;83857.57;;;18.90;30.19
73234;BME280;62293;-26.174;27.908;2022-08-03T20:22:46;83854.04;;;18.66;30.03
73234;BME280;62293;-26.174;27.908;2022-08-03T20:25:12;83853.16;;;18.80;30.31
73234;BME280;62293;-26.174;27.908;2022-08-03T20:27:43;83850.99;;;19.02;30.19
73234;BME280;62293;-26.174;27.908;2022-08-03T20:30:01;83846.12;;;19.08;29.89
73234;BME280;62293;-26.174;27.908;2022-08-03T20:32:26;83844.51;;;18.65;29.98
73234;BME280;62293;-26.174;27.908;2022-08-03T20:34:51;83846.69;;;18.98;29.82
73234;BME280;62293;-26.174;27.908;2022-08-03T20:37:17;83844.22;;;18.97;29.98
73234;BME280;62293;-26.174;27.908;2022-08-03T20:39:41;83842.59;;;18.95;30.28
73234;BME280;62293;-26.174;27.908;2022-08-03T20:42:07;83836.50;;;19.09;29.74
73234;BME280;62293;-26.174;27.908;2022-08-03T20:44:32;83829.00;;;18.40;30.03
73234;BME280;62293;-26.174;27.908;2022-08-03T20:46:58;83834.38;;;19.10;29.93
73234;BME280;62293;-26.174;27.908;2022-08-03T20:49:24;83837.97;;;18.93;29.85
73234;BME280;62293;-26.174;27.908;2022-08-03T20:51:50;83840.22;;;18.55;30.20
73234;BME280;62293;-26.174;27.908;2022-08-03T20:54:15;83837.86;;;19.00;30.06
73234;BME280;62293;-26.174;27.908;2022-08-03T20:56:39;83832.46;;;18.99;29.84
73234;BME280;62293;-26.174;27.908;2022-08-03T20:59:06;83831.05;;;18.49;30.27
73234;BME280;62293;-26.174;27.908;2022-08-03T21:01:31;83826.16;;;19.10;30.02
73234;BME280;62293;-26.174;27.908;2022-08-03T21:03:56;83830.71;;;19.19;29.94
73234;BME280;62293;-26.174;27.908;2022-08-03T21:06:23;83832.36;;;18.70;30.07
73234;BME280;62293;-26.174;27.908;2022-08-03T21:08:50;83829.67;;;18.94;30.32
73234;BME280;62293;-26.174;27.908;2022-08-03T21:11:17;83829.34;;;18.63;30.34
73234;BME280;62293;-26.174;27.908;2022-08-03T21:13:41;83827.97;;;18.92;29.59
73234;BME280;62293;-26.174;27.908;2022-08-03T21:16:02;83825.27;;;18.99;30.08
73234;BME280;62293;-26.174;27.908;2022-08-03T21:18:29;83821.45;;;19.01;29.93
73234;BME280;62293;-26.174;27.908;2022-08-03T21:20:53;83816.27;;;18.89;30.07
73234;BME280;62293;-26.174;27.908;2022-08-03T21:23:19;83808.57;;;18.97;29.85
73234;BME280;62293;-26.174;27.908;2022-08-03T21:25:43;83802.09;;;19.08;29.82
73234;BME280;62293;-26.174;27.908;2022-08-03T21:28:09;83805.83;;;18.50;29.88
73234;BME280;62293;-26.174;27.908;2022-08-03T21:30:35;83810.70;;;18.76;30.15
73234;BME280;62293;-26.174;27.908;2022-08-03T21:33:01;83804.29;;;18.83;30.14
73234;BME280;62293;-26.174;27.908;2022-08-03T21:35:26;83794.87;;;18.65;30.17
73234;BME280;62293;-26.174;27.908;2022-08-03T21:37:52;83793.41;;;18.15;30.31
73234;BME280;62293;-26.174;27.908;2022-08-03T21:40:16;83796.40;;;18.88;30.10
73234;BME280;62293;-26.174;27.908;2022-08-03T21:42:45;83793.02;;;18.93;29.94
73234;BME280;62293;-26.174;27.908;2022-08-03T21:45:11;83789.80;;;19.00;29.67
73234;BME280;62293;-26.174;27.908;2022-08-03T21:47:36;83791.60;;;18.65;29.93
73234;BME280;62293;-26.174;27.908;2022-08-03T21:50:02;83790.41;;;18.62;30.24
73234;BME280;62293;-26.174;27.908;2022-08-03T21:52:26;83786.78;;;18.65;29.64
73234;BME280;62293;-26.174;27.908;2022-08-03T21:54:49;83790.84;;;18.94;29.92
73234;BME280;62293;-26.174;27.908;2022-08-03T21:57:18;83786.17;;;18.86;29.78
73234;BME280;62293;-26.174;27.908;2022-08-03T21:59:47;83780.47;;;18.52;30.37
73234;BME280;62293;-26.174;27.908;2022-08-03T22:02:06;83778.69;;;18.87;29.88
73234;BME280;62293;-26.174;27.908;2022-08-03T22:04:31;83775.91;;;18.53;30.02
73234;BME280;62293;-26.174;27.908;2022-08-03T22:06:55;83776.42;;;18.72;29.96
73234;BME280;62293;-26.174;27.908;2022-08-03T22:09:20;83780.36;;;18.95;30.10
73234;BME280;62293;-26.174;27.908;2022-08-03T22:11:46;83780.90;;;18.92;30.19
73234;BME280;62293;-26.174;27.908;2022-08-03T22:14:10;83778.93;;;18.26;30.24
73234;BME280;62293;-26.174;27.908;2022-08-03T22:16:35;83767.96;;;18.58;29.94
73234;BME280;62293;-26.174;27.908;2022-08-03T22:19:01;83761.89;;;18.92;29.73
73234;BME280;62293;-26.174;27.908;2022-08-03T22:21:29;83764.09;;;18.94;29.79
73234;BME280;62293;-26.174;27.908;2022-08-03T22:23:51;83765.29;;;18.84;30.14
73234;BME280;62293;-26.174;27.908;2022-08-03T22:26:22;83758.93;;;18.68;29.98
73234;BME280;62293;-26.174;27.908;2022-08-03T22:28:42;83759.38;;;18.65;30.02
73234;BME280;62293;-26.174;27.908;2022-08-03T22:31:07;83756.18;;;18.60;30.35
73234;BME280;62293;-26.174;27.908;2022-08-03T22:33:34;83749.32;;;18.28;30.43
73234;BME280;62293;-26.174;27.908;2022-08-03T22:36:00;83744.07;;;18.62;30.10
73234;BME280;62293;-26.174;27.908;2022-08-03T22:38:25;83747.60;;;18.70;29.97
73234;BME280;62293;-26.174;27.908;2022-08-03T22:40:49;83738.16;;;18.40;30.36
73234;BME280;62293;-26.174;27.908;2022-08-03T22:43:14;83732.81;;;18.40;30.08
73234;BME280;62293;-26.174;27.908;2022-08-03T22:45:43;83736.67;;;18.37;30.16
73234;BME280;62293;-26.174;27.908;2022-08-03T22:48:07;83737.49;;;18.69;30.04
73234;BME280;62293;-26.174;27.908;2022-08-03T22:50:30;83731.83;;;18.85;30.08
73234;BME280;62293;-26.174;27.908;2022-08-03T22:52:56;83737.44;;;18.58;29.80
73234;BME280;62293;-26.174;27.908;2022-08-03T22:55:22;83739.14;;;18.47;30.25
73234;BME280;62293;-26.174;27.908;2022-08-03T22:57:46;83738.57;;;18.38;30.41
73234;BME280;62293;-26.174;27.908;2022-08-03T23:00:14;83738.01;;;18.36;30.32
73234;BME280;62293;-26.174;27.908;2022-08-03T23:02:39;83735.15;;;18.50;30.31
73234;BME280;62293;-26.174;27.908;2022-08-03T23:05:05;83735.75;;;18.45;30.07
73234;BME280;62293;-26.174;27.908;2022-08-03T23:07:31;83735.05;;;18.28;30.34
73234;BME280;62293;-26.174;27.908;2022-08-03T23:09:55;83729.42;;;18.55;30.14
73234;BME280;62293;-26.174;27.908;2022-08-03T23:12:19;83723.86;;;19.43;29.05
73234;BME280;62293;-26.174;27.908;2022-08-03T23:14:50;83720.06;;;19.71;28.53
73234;BME280;62293;-26.174;27.908;2022-08-03T23:17:11;83722.92;;;19.47;28.57
73234;BME280;62293;-26.174;27.908;2022-08-03T23:19:35;83721.20;;;19.56;28.66
73234;BME280;62293;-26.174;27.908;2022-08-03T23:22:02;83717.36;;;19.25;28.79
73234;BME280;62293;-26.174;27.908;2022-08-03T23:24:26;83716.17;;;19.41;28.79
73234;BME280;62293;-26.174;27.908;2022-08-03T23:26:51;83720.93;;;19.42;28.88
73234;BME280;62293;-26.174;27.908;2022-08-03T23:29:17;83717.10;;;19.82;28.58
73234;BME280;62293;-26.174;27.908;2022-08-03T23:31:43;83716.20;;;19.11;28.57
73234;BME280;62293;-26.174;27.908;2022-08-03T23:34:08;83713.73;;;19.67;28.61
73234;BME280;62293;-26.174;27.908;2022-08-03T23:36:32;83711.16;;;19.55;28.59
73234;BME280;62293;-26.174;27.908;2022-08-03T23:38:57;83709.54;;;19.36;28.77
73234;BME280;62293;-26.174;27.908;2022-08-03T23:41:22;83711.57;;;19.55;28.53
73234;BME280;62293;-26.174;27.908;2022-08-03T23:43:49;83713.24;;;19.61;28.62
73234;BME280;62293;-26.174;27.908;2022-08-03T23:46:14;83709.84;;;19.38;28.78
73234;BME280;62293;-26.174;27.908;2022-08-03T23:48:38;83710.28;;;19.27;28.73
73234;BME280;62293;-26.174;27.908;2022-08-03T23:51:16;83706.68;;;19.32;28.91
73234;BME280;62293;-26.174;27.908;2022-08-03T23:53:36;83704.30;;;19.74;28.58
73234;BME280;62293;-26.174;27.908;2022-08-03T23:56:06;83705.84;;;19.59;28.64
73234;BME280;62293;-26.174;27.908;2022-08-03T23:58:38;83703.31;;;19.33;28.95
